createdAt,value
2017-08-05T00:00:40.363Z,14.73
2017-08-05T00:01:29.439Z,14.64
2017-08-05T00:02:17.461Z,14.68
2017-08-05T00:03:05.480Z,14.68
2017-08-05T00:03:54.513Z,14.68
2017-08-05T00:04:42.642Z,14.63
2017-08-05T00:05:30.607Z,14.62
2017-08-05T00:06:19.603Z,14.57
2017-08-05T00:07:07.684Z,14.55
2017-08-05T00:07:55.740Z,14.56
2017-08-05T00:08:44.741Z,14.55
2017-08-05T00:09:32.833Z,14.54
2017-08-05T00:10:21.909Z,14.52
2017-08-05T00:11:16.803Z,14.50
2017-08-05T00:12:16.969Z,14.51
2017-08-05T00:13:12.029Z,14.47
2017-08-05T00:14:06.998Z,14.46
2017-08-05T00:15:06.995Z,14.46
2017-08-05T00:16:02.042Z,14.50
2017-08-05T00:16:57.146Z,14.52
2017-08-05T00:17:57.145Z,14.49
2017-08-05T00:18:52.145Z,14.48
2017-08-05T00:19:47.280Z,14.47
2017-08-05T00:20:48.320Z,14.50
2017-08-05T00:21:48.312Z,14.48
2017-08-05T00:22:48.307Z,14.47
2017-08-05T00:23:43.332Z,14.45
2017-08-05T00:24:37.484Z,14.44
2017-08-05T00:25:37.435Z,14.44
2017-08-05T00:26:32.449Z,14.49
2017-08-05T00:27:32.525Z,14.49
2017-08-05T00:28:26.532Z,14.54
2017-08-05T00:29:26.542Z,14.52
2017-08-05T00:30:21.585Z,14.54
2017-08-05T00:31:16.617Z,14.53
2017-08-05T00:32:05.637Z,14.53
2017-08-05T00:33:05.752Z,14.52
2017-08-05T00:33:53.726Z,14.47
2017-08-05T00:34:42.804Z,14.44
2017-08-05T00:35:30.868Z,14.44
2017-08-05T00:36:18.918Z,14.43
2017-08-05T00:37:07.935Z,14.44
2017-08-05T00:37:56.035Z,14.42
2017-08-05T00:38:50.019Z,14.42
2017-08-05T00:39:38.112Z,14.38
2017-08-05T00:40:32.302Z,14.38
2017-08-05T00:41:32.188Z,14.37
2017-08-05T00:42:27.114Z,14.38
2017-08-05T00:43:22.183Z,14.42
2017-08-05T00:44:23.266Z,14.37
2017-08-05T00:45:23.444Z,14.40
2017-08-05T00:46:23.313Z,14.39
2017-08-05T00:47:18.382Z,14.37
2017-08-05T00:48:12.337Z,14.35
2017-08-05T00:49:12.388Z,14.28
2017-08-05T00:50:12.552Z,14.20
2017-08-05T00:51:12.512Z,14.16
2017-08-05T00:52:12.525Z,14.10
2017-08-05T00:53:12.506Z,14.06
2017-08-05T00:54:12.703Z,13.98
2017-08-05T00:55:07.569Z,13.98
2017-08-05T00:56:01.676Z,14.01
2017-08-05T00:57:01.671Z,14.00
2017-08-05T00:57:56.724Z,14.04
2017-08-05T00:58:56.670Z,14.03
2017-08-05T00:59:50.722Z,14.00
2017-08-05T01:00:51.834Z,14.01
2017-08-05T01:01:52.852Z,14.05
2017-08-05T01:02:47.807Z,14.06
2017-08-05T01:03:41.933Z,14.02
2017-08-05T01:04:41.941Z,13.98
2017-08-05T01:05:36.985Z,13.96
2017-08-05T01:06:36.999Z,13.94
2017-08-05T01:07:37.010Z,13.92
2017-08-05T01:08:43.034Z,13.90
2017-08-05T01:09:38.050Z,13.88
2017-08-05T01:10:38.036Z,13.85
2017-08-05T01:11:33.162Z,13.85
2017-08-05T01:12:28.144Z,13.85
2017-08-05T01:13:29.276Z,13.81
2017-08-05T01:14:29.290Z,13.76
2017-08-05T01:15:29.579Z,13.74
2017-08-05T01:16:29.402Z,13.74
2017-08-05T01:17:30.314Z,13.73
2017-08-05T01:18:31.433Z,13.80
2017-08-05T01:19:25.400Z,13.79
2017-08-05T01:20:25.451Z,13.84
2017-08-05T01:21:20.513Z,13.86
2017-08-05T01:22:15.517Z,13.86
2017-08-05T01:23:16.522Z,13.87
2017-08-05T01:24:17.635Z,13.86
2017-08-05T01:25:12.626Z,13.86
2017-08-05T01:26:06.628Z,13.88
2017-08-05T01:27:06.694Z,13.84
2017-08-05T01:28:01.691Z,13.80
2017-08-05T01:29:01.767Z,13.80
2017-08-05T01:29:56.214Z,13.76
2017-08-05T01:30:55.926Z,13.78
2017-08-05T01:31:50.865Z,13.74
2017-08-05T01:32:45.974Z,13.70
2017-08-05T01:33:45.996Z,13.70
2017-08-05T01:34:40.947Z,13.67
2017-08-05T01:35:36.208Z,13.68
2017-08-05T01:36:36.168Z,13.69
2017-08-05T01:37:31.062Z,13.71
2017-08-05T01:38:26.121Z,13.71
2017-08-05T01:39:27.104Z,13.68
2017-08-05T01:40:28.118Z,13.72
2017-08-05T01:41:23.418Z,13.74
2017-08-05T01:42:17.229Z,13.75
2017-08-05T01:43:17.259Z,13.76
2017-08-05T01:44:17.338Z,13.72
2017-08-05T01:45:12.339Z,13.72
2017-08-05T01:46:06.609Z,13.71
2017-08-05T01:47:06.481Z,13.72
2017-08-05T01:48:01.441Z,13.71
2017-08-05T01:48:56.406Z,13.72
2017-08-05T01:49:57.544Z,13.70
2017-08-05T01:50:57.585Z,13.75
2017-08-05T01:51:57.568Z,13.77
2017-08-05T01:52:52.663Z,13.78
2017-08-05T01:53:46.740Z,13.81
2017-08-05T01:54:46.694Z,13.84
2017-08-05T01:55:41.862Z,13.90
2017-08-05T01:56:41.734Z,13.91
2017-08-05T01:57:35.806Z,13.92
2017-08-05T01:58:35.930Z,13.99
2017-08-05T01:59:30.863Z,13.96
2017-08-05T02:00:25.878Z,14.00
2017-08-05T02:01:25.910Z,13.98
2017-08-05T02:02:20.974Z,13.92
2017-08-05T02:03:15.996Z,13.83
2017-08-05T02:04:17.283Z,13.72
2017-08-05T02:05:17.050Z,13.68
2017-08-05T02:06:17.144Z,13.64
2017-08-05T02:07:12.118Z,13.61
2017-08-05T02:08:06.126Z,13.61
2017-08-05T02:09:06.130Z,13.58
2017-08-05T02:10:01.323Z,13.61
2017-08-05T02:11:01.291Z,13.70
2017-08-05T02:11:55.387Z,13.80
2017-08-05T02:12:55.333Z,13.80
2017-08-05T02:13:50.333Z,13.80
2017-08-05T02:14:44.359Z,13.80
2017-08-05T02:15:38.454Z,13.78
2017-08-05T02:16:27.619Z,13.73
2017-08-05T02:17:15.525Z,13.66
2017-08-05T02:18:03.497Z,13.65
2017-08-05T02:18:51.534Z,13.59
2017-08-05T02:19:45.630Z,13.58
2017-08-05T02:20:34.666Z,13.56
2017-08-05T02:21:22.753Z,13.52
2017-08-05T02:22:10.765Z,13.54
2017-08-05T02:23:11.839Z,13.56
2017-08-05T02:24:06.776Z,13.56
2017-08-05T02:24:55.974Z,13.56
2017-08-05T02:25:43.887Z,13.58
2017-08-05T02:26:32.929Z,13.60
2017-08-05T02:27:20.978Z,13.63
2017-08-05T02:28:09.007Z,13.63
2017-08-05T02:28:58.139Z,13.64
2017-08-05T02:29:46.394Z,13.66
2017-08-05T02:30:35.217Z,13.70
2017-08-05T02:31:30.129Z,13.72
2017-08-05T02:32:30.289Z,13.82
2017-08-05T02:33:25.242Z,13.98
2017-08-05T02:34:20.353Z,14.04
2017-08-05T02:35:20.304Z,14.12
2017-08-05T02:36:14.361Z,14.16
2017-08-05T02:37:09.399Z,14.18
2017-08-05T02:38:03.565Z,14.18
2017-08-05T02:38:58.528Z,14.16
2017-08-05T02:39:46.545Z,14.12
2017-08-05T02:40:35.553Z,14.12
2017-08-05T02:41:35.619Z,14.10
2017-08-05T02:42:23.733Z,14.08
2017-08-05T02:43:11.702Z,14.09
2017-08-05T02:43:59.732Z,14.09
2017-08-05T02:44:47.723Z,14.12
2017-08-05T02:45:36.826Z,14.17
2017-08-05T02:46:24.810Z,14.21
2017-08-05T02:47:13.941Z,14.24
2017-08-05T02:48:02.136Z,14.26
2017-08-05T02:48:50.055Z,14.32
2017-08-05T02:49:39.336Z,14.33
2017-08-05T02:50:27.095Z,14.35
2017-08-05T02:51:16.125Z,14.36
2017-08-05T02:52:04.114Z,14.40
2017-08-05T02:52:52.164Z,14.42
2017-08-05T02:53:40.195Z,14.48
2017-08-05T02:54:29.275Z,14.46
2017-08-05T02:55:17.299Z,14.53
2017-08-05T02:56:05.328Z,14.52
2017-08-05T02:56:54.401Z,14.54
2017-08-05T02:57:42.458Z,14.58
2017-08-05T02:58:30.451Z,14.60
2017-08-05T02:59:19.575Z,14.57
2017-08-05T03:00:07.803Z,14.62
2017-08-05T03:00:55.650Z,14.61
2017-08-05T03:01:49.590Z,14.62
2017-08-05T03:02:43.735Z,14.65
2017-08-05T03:03:37.814Z,14.67
2017-08-05T03:04:25.688Z,14.64
2017-08-05T03:05:13.842Z,14.68
2017-08-05T03:06:02.930Z,14.70
2017-08-05T03:06:50.873Z,14.70
2017-08-05T03:07:44.958Z,14.73
2017-08-05T03:08:33.067Z,14.78
2017-08-05T03:09:27.989Z,14.77
2017-08-05T03:10:28.029Z,14.82
2017-08-05T03:11:28.041Z,14.84
2017-08-05T03:12:28.166Z,14.87
2017-08-05T03:13:28.182Z,14.88
2017-08-05T03:14:22.168Z,14.85
2017-08-05T03:15:23.162Z,14.89
2017-08-05T03:16:23.325Z,14.89
2017-08-05T03:17:23.301Z,14.91
2017-08-05T03:18:18.387Z,14.91
2017-08-05T03:19:12.622Z,14.93
2017-08-05T03:20:12.395Z,14.94
2017-08-05T03:21:07.455Z,14.96
2017-08-05T03:22:02.502Z,14.96
2017-08-05T03:23:02.526Z,14.96
2017-08-05T03:23:57.531Z,14.99
2017-08-05T03:24:52.543Z,15.00
2017-08-05T03:25:52.666Z,15.00
2017-08-05T03:26:47.684Z,15.02
2017-08-05T03:27:47.698Z,15.03
2017-08-05T03:28:47.686Z,15.05
2017-08-05T03:29:47.829Z,15.06
2017-08-05T03:30:41.736Z,15.08
2017-08-05T03:31:41.976Z,15.10
2017-08-05T03:32:36.806Z,15.09
2017-08-05T03:33:36.934Z,15.08
2017-08-05T03:34:36.954Z,15.09
2017-08-05T03:35:36.954Z,15.10
2017-08-05T03:36:30.982Z,15.12
2017-08-05T03:37:31.018Z,15.09
2017-08-05T03:38:26.110Z,15.08
2017-08-05T03:39:21.152Z,15.07
2017-08-05T03:40:22.129Z,15.08
2017-08-05T03:41:22.160Z,15.08
2017-08-05T03:42:22.148Z,15.05
2017-08-05T03:43:22.407Z,15.08
2017-08-05T03:44:23.199Z,15.14
2017-08-05T03:45:23.288Z,15.16
2017-08-05T03:46:11.289Z,15.14
2017-08-05T03:46:59.370Z,15.16
2017-08-05T03:47:47.624Z,15.19
2017-08-05T03:48:35.541Z,15.17
2017-08-05T03:49:24.711Z,15.17
2017-08-05T03:50:13.584Z,15.15
2017-08-05T03:51:01.741Z,15.16
2017-08-05T03:51:49.832Z,15.16
2017-08-05T03:52:37.754Z,15.14
2017-08-05T03:53:26.887Z,15.14
2017-08-05T03:54:16.053Z,15.11
2017-08-05T03:55:10.015Z,15.13
2017-08-05T03:55:58.985Z,15.13
2017-08-05T03:56:47.102Z,15.12
2017-08-05T03:57:35.142Z,15.10
2017-08-05T03:58:29.158Z,15.08
2017-08-05T03:59:24.117Z,15.07
2017-08-05T04:00:24.361Z,15.03
2017-08-05T04:01:18.229Z,15.02
2017-08-05T04:02:13.333Z,15.00
2017-08-05T04:03:01.276Z,15.01
2017-08-05T04:03:50.448Z,14.99
2017-08-05T04:04:38.422Z,15.00
2017-08-05T04:05:27.561Z,14.98
2017-08-05T04:06:15.564Z,14.97
2017-08-05T04:07:03.684Z,14.99
2017-08-05T04:07:57.578Z,15.01
2017-08-05T04:08:45.631Z,15.01
2017-08-05T04:09:33.702Z,15.12
2017-08-05T04:10:27.931Z,15.20
2017-08-05T04:11:16.908Z,15.20
2017-08-05T04:12:04.941Z,15.20
2017-08-05T04:12:53.933Z,15.19
2017-08-05T04:13:42.033Z,15.18
2017-08-05T04:14:30.023Z,15.15
2017-08-05T04:15:19.046Z,15.11
2017-08-05T04:16:07.074Z,15.13
2017-08-05T04:16:55.193Z,15.11
2017-08-05T04:17:44.200Z,15.12
2017-08-05T04:18:32.208Z,15.10
2017-08-05T04:19:20.299Z,15.08
2017-08-05T04:20:09.162Z,15.06
2017-08-05T04:20:57.395Z,15.05
2017-08-05T04:21:46.502Z,15.04
2017-08-05T04:22:35.264Z,15.07
2017-08-05T04:23:23.361Z,15.12
2017-08-05T04:24:11.306Z,15.16
2017-08-05T04:24:59.358Z,15.22
2017-08-05T04:25:48.421Z,15.30
2017-08-05T04:26:42.538Z,15.33
2017-08-05T04:27:30.494Z,15.35
2017-08-05T04:28:18.577Z,15.36
2017-08-05T04:29:06.553Z,15.30
2017-08-05T04:29:55.683Z,15.36
2017-08-05T04:30:43.643Z,15.36
2017-08-05T04:31:31.697Z,15.38
2017-08-05T04:32:20.740Z,15.34
2017-08-05T04:33:08.835Z,15.43
2017-08-05T04:33:57.884Z,15.45
2017-08-05T04:34:45.851Z,15.41
2017-08-05T04:35:33.886Z,15.38
2017-08-05T04:36:23.262Z,15.40
2017-08-05T04:37:11.091Z,15.42
2017-08-05T04:37:59.066Z,15.36
2017-08-05T04:38:47.148Z,15.34
2017-08-05T04:39:36.205Z,15.31
2017-08-05T04:40:24.228Z,15.30
2017-08-05T04:41:13.389Z,15.28
2017-08-05T04:42:01.360Z,15.31
2017-08-05T04:42:55.545Z,15.27
2017-08-05T04:43:55.438Z,15.30
2017-08-05T04:44:50.414Z,15.38
2017-08-05T04:45:45.447Z,15.39
2017-08-05T04:46:39.469Z,15.47
2017-08-05T04:47:39.525Z,15.54
2017-08-05T04:48:34.623Z,15.56
2017-08-05T04:49:29.592Z,15.53
2017-08-05T04:50:29.700Z,15.60
2017-08-05T04:51:24.907Z,15.64
2017-08-05T04:52:19.754Z,15.62
2017-08-05T04:53:13.723Z,15.58
2017-08-05T04:54:15.141Z,15.52
2017-08-05T04:55:14.979Z,15.54
2017-08-05T04:56:14.866Z,15.54
2017-08-05T04:57:09.930Z,15.54
2017-08-05T04:58:10.012Z,15.56
2017-08-05T04:59:09.970Z,15.54
2017-08-05T05:00:10.036Z,15.48
2017-08-05T05:01:10.053Z,15.50
2017-08-05T05:02:05.002Z,15.50
2017-08-05T05:03:00.092Z,15.47
2017-08-05T05:03:49.203Z,15.44
2017-08-05T05:04:49.285Z,15.46
2017-08-05T05:05:49.204Z,15.52
2017-08-05T05:06:49.289Z,15.56
2017-08-05T05:07:38.319Z,15.54
2017-08-05T05:08:32.316Z,15.55
2017-08-05T05:09:33.410Z,15.54
2017-08-05T05:10:33.419Z,15.53
2017-08-05T05:11:22.496Z,15.52
2017-08-05T05:12:22.612Z,15.51
2017-08-05T05:13:22.618Z,15.54
2017-08-05T05:14:16.852Z,15.49
2017-08-05T05:15:11.756Z,15.56
2017-08-05T05:16:00.874Z,15.60
2017-08-05T05:16:48.958Z,15.52
2017-08-05T05:17:49.048Z,15.54
2017-08-05T05:18:43.991Z,15.56
2017-08-05T05:19:37.827Z,15.54
2017-08-05T05:20:39.015Z,15.60
2017-08-05T05:21:33.062Z,15.64
2017-08-05T05:22:20.957Z,15.69
2017-08-05T05:23:10.217Z,15.72
2017-08-05T05:24:04.203Z,15.78
2017-08-05T05:24:59.229Z,15.82
2017-08-05T05:25:48.129Z,15.82
2017-08-05T05:26:42.247Z,15.77
2017-08-05T05:27:42.505Z,15.77
2017-08-05T05:28:30.464Z,15.84
2017-08-05T05:29:30.365Z,15.88
2017-08-05T05:30:25.464Z,15.82
2017-08-05T05:31:25.477Z,15.84
2017-08-05T05:32:25.481Z,15.90
2017-08-05T05:33:13.597Z,15.87
2017-08-05T05:34:08.710Z,15.84
2017-08-05T05:35:08.653Z,15.86
2017-08-05T05:35:56.660Z,15.88
2017-08-05T05:36:51.693Z,15.86
2017-08-05T05:37:46.841Z,15.87
2017-08-05T05:38:40.878Z,15.88
2017-08-05T05:39:41.918Z,15.96
2017-08-05T05:40:42.843Z,15.92
2017-08-05T05:41:36.726Z,15.92
2017-08-05T05:42:36.847Z,15.92
2017-08-05T05:43:31.878Z,15.91
2017-08-05T05:44:26.930Z,15.90
2017-08-05T05:45:20.950Z,15.96
2017-08-05T05:46:21.978Z,15.94
2017-08-05T05:47:23.159Z,15.88
2017-08-05T05:48:18.050Z,15.98
2017-08-05T05:49:18.370Z,15.89
2017-08-05T05:50:24.094Z,15.99
2017-08-05T05:51:19.169Z,15.96
2017-08-05T05:52:13.352Z,16.02
2017-08-05T05:53:13.269Z,16.09
2017-08-05T05:54:08.272Z,16.08
2017-08-05T05:55:02.596Z,16.05
2017-08-05T05:56:02.628Z,16.10
2017-08-05T05:56:56.447Z,16.16
2017-08-05T05:57:56.596Z,16.14
2017-08-05T05:58:45.491Z,16.21
2017-08-05T05:59:39.486Z,16.18
2017-08-05T06:00:39.741Z,16.23
2017-08-05T06:01:34.714Z,16.28
2017-08-05T06:02:28.604Z,16.22
2017-08-05T06:03:23.621Z,16.11
2017-08-05T06:04:18.980Z,16.12
2017-08-05T06:05:18.747Z,16.10
2017-08-05T06:06:13.760Z,16.16
2017-08-05T06:07:07.831Z,16.14
2017-08-05T06:08:02.159Z,16.13
2017-08-05T06:08:56.941Z,16.14
2017-08-05T06:09:44.925Z,16.20
2017-08-05T06:10:32.996Z,16.21
2017-08-05T06:11:33.050Z,16.16
2017-08-05T06:12:28.103Z,16.22
2017-08-05T06:13:22.116Z,16.21
2017-08-05T06:14:23.325Z,16.26
2017-08-05T06:15:18.209Z,16.34
2017-08-05T06:16:18.223Z,16.29
2017-08-05T06:17:18.322Z,16.36
2017-08-05T06:18:18.271Z,16.37
2017-08-05T06:19:18.654Z,16.42
2017-08-05T06:20:18.553Z,16.56
2017-08-05T06:21:18.562Z,16.70
2017-08-05T06:22:18.422Z,16.67
2017-08-05T06:23:24.606Z,16.66
2017-08-05T06:24:19.833Z,16.72
2017-08-05T06:25:13.505Z,16.68
2017-08-05T06:26:13.595Z,16.76
2017-08-05T06:27:08.836Z,16.78
2017-08-05T06:28:03.680Z,16.79
2017-08-05T06:28:57.832Z,16.82
2017-08-05T06:29:52.923Z,16.88
2017-08-05T06:30:46.873Z,16.88
2017-08-05T06:31:47.806Z,16.87
2017-08-05T06:32:47.808Z,16.87
2017-08-05T06:33:43.057Z,16.94
2017-08-05T06:34:38.165Z,17.01
2017-08-05T06:35:38.214Z,17.06
2017-08-05T06:36:33.106Z,17.06
2017-08-05T06:37:27.094Z,17.08
2017-08-05T06:38:27.363Z,17.16
2017-08-05T06:39:27.345Z,17.01
2017-08-05T06:40:15.569Z,17.08
2017-08-05T06:41:03.528Z,17.10
2017-08-05T06:41:51.555Z,17.06
2017-08-05T06:42:46.618Z,17.01
2017-08-05T06:43:40.583Z,17.09
2017-08-05T06:44:34.662Z,17.02
2017-08-05T06:45:23.758Z,16.95
2017-08-05T06:46:12.848Z,16.88
2017-08-05T06:47:00.831Z,16.72
2017-08-05T06:47:54.872Z,16.70
2017-08-05T06:48:48.909Z,16.66
2017-08-05T06:49:44.014Z,16.70
2017-08-05T06:50:43.983Z,16.72
2017-08-05T06:51:44.010Z,16.76
2017-08-05T06:52:39.044Z,16.68
2017-08-05T06:53:33.167Z,16.73
2017-08-05T06:54:27.131Z,16.71
2017-08-05T06:55:15.160Z,16.68
2017-08-05T06:56:09.289Z,16.70
2017-08-05T06:57:03.292Z,16.64
2017-08-05T06:57:57.324Z,16.68
2017-08-05T06:58:46.408Z,16.76
2017-08-05T06:59:34.419Z,16.81
2017-08-05T07:00:35.421Z,16.79
2017-08-05T07:01:23.680Z,16.88
2017-08-05T07:02:17.590Z,16.84
2017-08-05T07:03:05.549Z,16.88
2017-08-05T07:03:54.611Z,16.84
2017-08-05T07:04:43.676Z,16.78
2017-08-05T07:05:38.601Z,16.74
2017-08-05T07:06:38.800Z,16.73
2017-08-05T07:07:33.824Z,16.69
2017-08-05T07:08:22.854Z,16.70
2017-08-05T07:09:10.878Z,16.68
2017-08-05T07:09:58.970Z,16.76
2017-08-05T07:10:52.910Z,16.75
2017-08-05T07:11:48.023Z,16.70
2017-08-05T07:12:36.095Z,16.73
2017-08-05T07:13:25.147Z,16.80
2017-08-05T07:14:14.050Z,16.88
2017-08-05T07:15:03.137Z,16.87
2017-08-05T07:15:52.234Z,16.86
2017-08-05T07:16:52.300Z,16.86
2017-08-05T07:17:41.339Z,16.94
2017-08-05T07:18:29.339Z,16.92
2017-08-05T07:19:17.422Z,17.00
2017-08-05T07:20:06.557Z,17.06
2017-08-05T07:20:54.549Z,17.06
2017-08-05T07:21:42.532Z,17.08
2017-08-05T07:22:31.672Z,17.08
2017-08-05T07:23:31.689Z,17.08
2017-08-05T07:24:25.641Z,17.10
2017-08-05T07:25:26.740Z,16.98
2017-08-05T07:26:20.819Z,16.99
2017-08-05T07:27:20.755Z,16.95
2017-08-05T07:28:15.898Z,16.92
2017-08-05T07:29:03.904Z,16.86
2017-08-05T07:30:03.960Z,16.83
2017-08-05T07:30:57.988Z,16.89
2017-08-05T07:31:58.035Z,16.92
2017-08-05T07:32:58.020Z,16.92
2017-08-05T07:34:04.093Z,16.93
2017-08-05T07:34:59.126Z,16.97
2017-08-05T07:35:47.159Z,16.92
2017-08-05T07:36:35.181Z,16.94
2017-08-05T07:37:24.268Z,16.98
2017-08-05T07:38:19.307Z,16.88
2017-08-05T07:39:13.541Z,16.88
2017-08-05T07:40:07.371Z,16.86
2017-08-05T07:40:56.456Z,16.94
2017-08-05T07:41:50.567Z,16.96
2017-08-05T07:42:39.571Z,17.06
2017-08-05T07:43:39.552Z,16.98
2017-08-05T07:44:28.609Z,17.06
2017-08-05T07:45:17.643Z,17.16
2017-08-05T07:46:11.659Z,17.20
2017-08-05T07:47:00.801Z,17.24
2017-08-05T07:47:55.837Z,17.43
2017-08-05T07:48:44.815Z,17.40
2017-08-05T07:49:38.907Z,17.37
2017-08-05T07:50:32.898Z,17.44
2017-08-05T07:51:26.983Z,17.42
2017-08-05T07:52:21.988Z,17.39
2017-08-05T07:53:16.033Z,17.36
2017-08-05T07:54:11.081Z,17.38
2017-08-05T07:55:06.136Z,17.32
2017-08-05T07:56:01.162Z,17.33
2017-08-05T07:56:56.224Z,17.30
2017-08-05T07:57:56.338Z,17.28
2017-08-05T07:58:51.290Z,17.24
2017-08-05T07:59:51.352Z,17.20
2017-08-05T08:00:52.338Z,17.14
2017-08-05T08:01:53.399Z,17.13
2017-08-05T08:02:47.309Z,17.13
2017-08-05T08:03:48.472Z,17.10
2017-08-05T08:04:48.472Z,17.20
2017-08-05T08:05:36.348Z,17.12
2017-08-05T08:06:31.558Z,17.16
2017-08-05T08:07:25.639Z,17.14
2017-08-05T08:08:19.578Z,17.19
2017-08-05T08:09:19.835Z,17.26
2017-08-05T08:10:19.817Z,17.30
2017-08-05T08:11:07.698Z,17.31
2017-08-05T08:11:56.048Z,17.39
2017-08-05T08:12:44.940Z,17.32
2017-08-05T08:13:33.967Z,17.34
2017-08-05T08:14:27.967Z,17.50
2017-08-05T08:15:17.058Z,17.54
2017-08-05T08:16:11.202Z,17.42
2017-08-05T08:17:06.129Z,17.38
2017-08-05T08:18:06.227Z,17.49
2017-08-05T08:19:01.253Z,17.40
2017-08-05T08:19:56.286Z,17.39
2017-08-05T08:20:56.248Z,17.39
2017-08-05T08:21:51.180Z,17.42
2017-08-05T08:22:51.423Z,17.46
2017-08-05T08:23:52.484Z,17.37
2017-08-05T08:24:53.545Z,17.38
2017-08-05T08:25:53.539Z,17.40
2017-08-05T08:26:53.442Z,17.42
2017-08-05T08:27:47.341Z,17.41
2017-08-05T08:28:48.573Z,17.52
2017-08-05T08:29:48.724Z,17.50
2017-08-05T08:30:43.726Z,17.53
2017-08-05T08:31:38.591Z,17.58
2017-08-05T08:32:38.595Z,17.57
2017-08-05T08:33:32.659Z,17.45
2017-08-05T08:34:32.712Z,17.41
2017-08-05T08:35:32.643Z,17.52
2017-08-05T08:36:22.035Z,17.60
2017-08-05T08:37:10.983Z,17.64
2017-08-05T08:38:05.866Z,17.53
2017-08-05T08:39:05.897Z,17.50
2017-08-05T08:40:01.166Z,17.58
2017-08-05T08:40:55.068Z,17.60
2017-08-05T08:41:44.282Z,17.64
2017-08-05T08:42:44.300Z,17.61
2017-08-05T08:43:39.016Z,17.63
2017-08-05T08:44:27.369Z,17.71
2017-08-05T08:45:27.201Z,17.72
2017-08-05T08:46:15.232Z,17.70
2017-08-05T08:47:03.504Z,17.75
2017-08-05T08:47:52.568Z,17.80
2017-08-05T08:48:47.440Z,17.70
2017-08-05T08:49:35.664Z,17.76
2017-08-05T08:50:24.703Z,17.81
2017-08-05T08:51:12.840Z,17.79
2017-08-05T08:52:00.812Z,17.91
2017-08-05T08:52:49.723Z,17.96
2017-08-05T08:53:44.829Z,17.88
2017-08-05T08:54:38.921Z,18.00
2017-08-05T08:55:27.821Z,18.02
2017-08-05T08:56:17.083Z,17.96
2017-08-05T08:57:12.148Z,17.88
2017-08-05T08:58:11.980Z,17.84
2017-08-05T08:59:00.108Z,17.85
2017-08-05T08:59:55.256Z,17.83
2017-08-05T09:00:55.042Z,17.94
2017-08-05T09:01:55.281Z,17.97
2017-08-05T09:02:55.115Z,18.07
2017-08-05T09:03:55.319Z,18.29
2017-08-05T09:04:50.372Z,17.94
2017-08-05T09:05:45.486Z,17.89
2017-08-05T09:06:39.499Z,17.88
2017-08-05T09:07:27.614Z,18.01
2017-08-05T09:08:28.603Z,18.14
2017-08-05T09:09:29.583Z,18.28
2017-08-05T09:10:23.708Z,18.39
2017-08-05T09:11:17.631Z,18.48
2017-08-05T09:12:17.785Z,18.48
2017-08-05T09:13:17.822Z,18.32
2017-08-05T09:14:06.879Z,18.24
2017-08-05T09:15:00.950Z,18.13
2017-08-05T09:15:54.928Z,18.16
2017-08-05T09:16:55.987Z,18.15
2017-08-05T09:17:56.009Z,18.00
2017-08-05T09:18:56.071Z,18.02
2017-08-05T09:19:45.089Z,17.99
2017-08-05T09:20:39.244Z,17.96
2017-08-05T09:21:34.188Z,18.10
2017-08-05T09:22:22.062Z,18.14
2017-08-05T09:23:16.177Z,18.27
2017-08-05T09:24:10.317Z,18.37
2017-08-05T09:24:59.301Z,18.42
2017-08-05T09:25:53.360Z,18.36
2017-08-05T09:26:42.327Z,18.32
2017-08-05T09:27:36.581Z,18.28
2017-08-05T09:28:25.667Z,18.19
2017-08-05T09:29:19.651Z,18.06
2017-08-05T09:30:13.680Z,18.00
2017-08-05T09:31:01.742Z,17.98
2017-08-05T09:31:50.748Z,17.92
2017-08-05T09:32:45.859Z,17.82
2017-08-05T09:33:40.835Z,17.72
2017-08-05T09:34:36.032Z,17.72
2017-08-05T09:35:29.950Z,17.81
2017-08-05T09:36:30.028Z,17.93
2017-08-05T09:37:25.051Z,18.01
2017-08-05T09:38:19.080Z,18.06
2017-08-05T09:39:13.130Z,18.02
2017-08-05T09:40:07.229Z,18.10
2017-08-05T09:41:07.219Z,18.26
2017-08-05T09:42:02.288Z,18.33
2017-08-05T09:42:57.297Z,18.31
2017-08-05T09:43:51.346Z,18.27
2017-08-05T09:44:52.373Z,18.15
2017-08-05T09:45:47.485Z,18.14
2017-08-05T09:46:41.525Z,18.20
2017-08-05T09:47:29.533Z,18.10
2017-08-05T09:48:23.592Z,18.06
2017-08-05T09:49:12.586Z,17.97
2017-08-05T09:50:07.596Z,17.92
2017-08-05T09:51:07.705Z,17.92
2017-08-05T09:51:56.776Z,17.96
2017-08-05T09:52:44.790Z,18.04
2017-08-05T09:53:33.801Z,18.00
2017-08-05T09:54:33.904Z,17.94
2017-08-05T09:55:22.987Z,18.03
2017-08-05T09:56:11.963Z,18.06
2017-08-05T09:57:06.056Z,18.10
2017-08-05T09:58:00.049Z,18.20
2017-08-05T09:58:49.087Z,18.37
2017-08-05T09:59:37.203Z,18.62
2017-08-05T10:00:26.239Z,18.63
2017-08-05T10:01:21.311Z,18.63
2017-08-05T10:02:21.326Z,18.62
2017-08-05T10:03:10.376Z,18.74
2017-08-05T10:03:59.321Z,18.90
2017-08-05T10:04:53.493Z,19.04
2017-08-05T10:05:47.415Z,19.14
2017-08-05T10:06:36.557Z,19.27
2017-08-05T10:07:24.606Z,19.44
2017-08-05T10:08:19.583Z,19.42
2017-08-05T10:09:14.805Z,19.42
2017-08-05T10:10:09.832Z,19.45
2017-08-05T10:11:03.844Z,19.52
2017-08-05T10:12:04.948Z,19.43
2017-08-05T10:13:04.888Z,19.20
2017-08-05T10:13:53.053Z,19.26
2017-08-05T10:14:46.981Z,19.29
2017-08-05T10:15:36.101Z,19.13
2017-08-05T10:16:31.051Z,18.69
2017-08-05T10:17:19.205Z,18.89
2017-08-05T10:18:07.189Z,19.00
2017-08-05T10:18:55.320Z,18.87
2017-08-05T10:19:55.279Z,18.75
2017-08-05T10:20:44.322Z,19.40
2017-08-05T10:21:33.216Z,19.83
2017-08-05T10:22:28.623Z,19.72
2017-08-05T10:23:22.509Z,19.70
2017-08-05T10:24:16.536Z,19.86
2017-08-05T10:25:10.658Z,19.68
2017-08-05T10:26:05.697Z,20.17
2017-08-05T10:26:59.687Z,20.26
2017-08-05T10:27:59.770Z,19.34
2017-08-05T10:28:48.822Z,19.01
2017-08-05T10:29:48.835Z,19.24
2017-08-05T10:30:48.941Z,19.39
2017-08-05T10:31:42.987Z,19.79
2017-08-05T10:32:31.009Z,19.68
2017-08-05T10:33:26.112Z,19.45
2017-08-05T10:34:20.152Z,19.73
2017-08-05T10:35:09.203Z,19.58
2017-08-05T10:35:57.278Z,19.78
2017-08-05T10:36:51.284Z,19.28
2017-08-05T10:37:40.343Z,18.72
2017-08-05T10:38:29.631Z,18.02
2017-08-05T10:39:29.505Z,17.86
2017-08-05T10:40:24.474Z,18.02
2017-08-05T10:41:18.573Z,18.40
2017-08-05T10:42:24.549Z,17.76
2017-08-05T10:43:13.659Z,17.28
2017-08-05T10:44:08.682Z,17.57
2017-08-05T10:45:08.807Z,18.29
2017-08-05T10:46:02.859Z,18.44
2017-08-05T10:46:56.870Z,18.63
2017-08-05T10:47:45.885Z,18.43
2017-08-05T10:48:40.916Z,18.39
2017-08-05T10:49:36.006Z,18.30
2017-08-05T10:50:30.091Z,18.49
2017-08-05T10:51:31.208Z,18.32
2017-08-05T10:52:19.261Z,18.50
2017-08-05T10:53:19.207Z,18.48
2017-08-05T10:54:20.220Z,18.59
2017-08-05T10:55:15.514Z,18.76
2017-08-05T10:56:15.414Z,18.80
2017-08-05T10:57:21.413Z,19.10
2017-08-05T10:58:16.417Z,19.33
2017-08-05T10:59:10.495Z,19.29
2017-08-05T11:00:11.533Z,19.24
2017-08-05T11:01:12.663Z,19.41
2017-08-05T11:02:12.676Z,19.05
2017-08-05T11:03:06.685Z,18.94
2017-08-05T11:04:00.768Z,18.70
2017-08-05T11:04:49.825Z,18.78
2017-08-05T11:05:43.861Z,19.32
2017-08-05T11:06:37.908Z,19.56
2017-08-05T11:07:32.925Z,19.73
2017-08-05T11:08:28.036Z,19.73
2017-08-05T11:09:22.072Z,19.52
2017-08-05T11:10:11.112Z,19.10
2017-08-05T11:11:05.131Z,19.31
2017-08-05T11:12:05.254Z,19.54
2017-08-05T11:13:05.257Z,19.82
2017-08-05T11:14:05.322Z,19.75
2017-08-05T11:15:05.383Z,19.62
2017-08-05T11:15:54.402Z,19.45
2017-08-05T11:16:42.535Z,19.87
2017-08-05T11:17:36.510Z,19.54
2017-08-05T11:18:25.542Z,19.43
2017-08-05T11:19:20.645Z,19.74
2017-08-05T11:20:14.721Z,19.88
2017-08-05T11:21:09.775Z,19.39
2017-08-05T11:22:03.777Z,18.94
2017-08-05T11:22:58.924Z,19.14
2017-08-05T11:23:59.811Z,19.06
2017-08-05T11:24:54.942Z,19.08
2017-08-05T11:25:43.943Z,19.52
2017-08-05T11:26:38.008Z,19.72
2017-08-05T11:27:38.151Z,19.22
2017-08-05T11:28:27.434Z,19.24
2017-08-05T11:29:16.139Z,18.99
2017-08-05T11:30:11.245Z,18.89
2017-08-05T11:31:05.270Z,19.06
2017-08-05T11:31:59.337Z,18.06
2017-08-05T11:32:47.462Z,18.16
2017-08-05T11:33:36.515Z,18.53
2017-08-05T11:34:31.484Z,18.28
2017-08-05T11:35:25.568Z,18.61
2017-08-05T11:36:20.597Z,18.38
2017-08-05T11:37:15.683Z,17.99
2017-08-05T11:38:04.679Z,18.12
2017-08-05T11:38:58.853Z,18.71